Battle Lake, MN (56515)

11:32 AM CDT on October 24, 2014 (GMT -0500)
Wall Lake | Change Station
CLOSE
Current Station
Personal Weather Station
Location: Fergus Falls, MN
Elevation: 1230 ft
Nearby Weather Stations

Elev 1230 ft 46.28 °N, 95.96 °W | Updated 7 seconds ago

Clear
Clear
54.1 °F
Feels Like 54.1 °F
N
4.2
Wind Variable Wind from SW

Today
High -- | Low -- °F
--% Chance of Precip.
Yesterday
High -- | Low -- °F
Precip. -- in
7:52 AM 6:20 PM
New Moon, 1% visible
Pressure 29.85 in
Visibility 10.0 miles
Clouds Clear
Dew Point 54 °F
Humidity 99%
Rainfall 0.00 in
Snow Depth Not available.
UV 2 out of 12
Pollen 2.00 out of 12
Air Quality Not available.
Flu Activity Sporadic
METAR KFFM 241614Z AUTO 22004KT 10SM CLR 13/07 A2985 RMK AO2

More Conditions Fewer Conditions

Pressure 29.85 in
Visibility 10.0 miles
Clouds Clear
Dew Point 54 °F
Humidity 99%
Rainfall 0.00 in
Snow Depth Not available.
UV 2 out of 12
Pollen 2.00 out of 12
Air Quality Not available.
Flu Activity Sporadic
METAR KFFM 241614Z AUTO 22004KT 10SM CLR 13/07 A2985 RMK AO2

More Conditions Fewer Conditions

10-Day Weather Forecast

Almanac

Astronomy

Oct. 24, 2014 Rise Set
Actual Time 7:52 AM CDT 6:20 PM CDT
Civil Twilight 7:21 AM CDT 6:51 PM CDT
Nautical Twilight 6:46 AM CDT 7:26 PM CDT
Astronomical Twilight 6:11 AM CDT 8:01 PM CDT
Moon 8:34 AM CDT 6:58 PM CDT
Length of Visible Light 11h 29m
Length of Day
10h 28m
Tomorrow will be 3m 4s shorter.
New Moon, 1% of the Moon is Illuminated
Today
New Moon
Oct 30
First Quarter
Nov 6
Full
Nov 14
Last Quarter
Nov 22
New

Today's Extremes

State Highs State Lows

Community

WunderPhotos

Upload Photos

1,764,603 photos uploaded!

WunderBlogs® & News

By Dr. Jeff Masters
Director of Meteorology, Weather Underground
By Kari Strenfel
Meteorologist, Weather Underground
By Christopher C. Burt
Weather Historian, Weather Underground
October 24, 2014
October 24, 2014
October 24, 2014

Nearby

Snow Depth

Station Depth Elevation
No new snow has been reported.

Earthquake Activity

City Distance Mag. Time & Date
No recent earthquake activity has been reported nearby.
Minimum magnitude displayed is 2.5.

Coastal Water Temperatures

Place Temperature
No Stations Reporting

Nearby Weather Stations